Time;durP1;ratioP1;P1;durP2;ratioP2;P2;SDS_P1;SDS_P2;PMS_P1;PMS_P2;Temp;Humidity;BMP_temperature;BMP_pressure;BME280_temperature;BME280_humidity;BME280_pressure;Samples;Min_cycle;Max_cycle;Signal;HPM_P1;HPM_P2
2021/05/20 00:02:21;;;;;;;6.07;4.03;;;;;;;8.77;100.00;97897.94;4994802;28;20046;-75
2021/05/20 00:04:48;;;;;;;6.28;4.10;;;;;;;8.72;100.00;97906.13;5012117;28;20300;-77
2021/05/20 00:07:17;;;;;;;8.05;3.92;;;;;;;8.75;100.00;97905.53;5010960;28;20462;-75
2021/05/20 00:09:44;;;;;;;5.85;4.03;;;;;;;8.71;100.00;97901.84;5011335;28;20111;-75
2021/05/20 00:12:12;;;;;;;5.20;3.80;;;;;;;8.67;100.00;97914.31;5012147;28;20045;-74
2021/05/20 00:14:40;;;;;;;6.82;3.80;;;;;;;8.65;100.00;97910.31;4993144;28;20116;-75
2021/05/20 00:17:07;;;;;;;6.35;4.07;;;;;;;8.61;100.00;97918.22;5011153;28;20045;-74
2021/05/20 00:19:34;;;;;;;6.00;3.97;;;;;;;8.62;100.00;97909.00;5011443;28;20046;-77
2021/05/20 00:22:01;;;;;;;6.88;4.07;;;;;;;8.64;100.00;97916.81;5011180;28;20049;-76
2021/05/20 00:24:29;;;;;;;8.52;4.35;;;;;;;8.64;100.00;97924.91;4992719;28;20490;-75
2021/05/20 00:26:56;;;;;;;9.55;4.53;;;;;;;8.65;100.00;97931.88;5010372;28;20045;-75
2021/05/20 00:29:23;;;;;;;9.45;4.65;;;;;;;8.71;100.00;97923.44;4992458;28;20046;-77
2021/05/20 00:31:49;;;;;;;8.57;4.53;;;;;;;8.80;100.00;97923.53;4993902;28;20045;-76
2021/05/20 00:34:16;;;;;;;6.60;4.43;;;;;;;8.73;100.00;97909.63;5010256;28;20042;-75
2021/05/20 00:36:42;;;;;;;5.35;4.32;;;;;;;8.83;100.00;97930.28;4993580;28;20045;-75
2021/05/20 00:39:09;;;;;;;9.10;4.18;;;;;;;8.76;100.00;97931.44;5010449;28;20521;-76
2021/05/20 00:41:35;;;;;;;6.50;4.28;;;;;;;8.68;100.00;97926.72;5010860;28;20045;-74
2021/05/20 00:44:02;;;;;;;8.35;4.78;;;;;;;8.60;100.00;97935.47;4992641;28;20152;-75
2021/05/20 00:46:29;;;;;;;7.18;4.90;;;;;;;8.50;100.00;97934.84;5009467;28;20053;-73
2021/05/20 00:48:55;;;;;;;10.02;5.50;;;;;;;8.42;100.00;97932.81;5010133;28;20050;-74
2021/05/20 00:51:22;;;;;;;11.18;5.68;;;;;;;8.36;100.00;97940.16;5010406;28;20045;-77
2021/05/20 00:53:50;;;;;;;9.05;4.85;;;;;;;8.33;100.00;97943.47;5020285;28;20138;-74
2021/05/20 00:56:21;;;;;;;8.60;5.47;;;;;;;8.26;100.00;97950.31;5013229;28;20069;-76
2021/05/20 00:58:49;;;;;;;8.32;5.22;;;;;;;8.28;100.00;97958.91;5010252;28;20041;-75
2021/05/20 01:01:16;;;;;;;9.38;5.07;;;;;;;8.23;100.00;97957.09;5010060;28;20042;-74
2021/05/20 01:03:43;;;;;;;9.52;4.90;;;;;;;8.24;100.00;97955.16;5010291;28;20065;-74
2021/05/20 01:06:10;;;;;;;6.68;4.28;;;;;;;8.22;100.00;97955.47;4977143;28;20298;-75
2021/05/20 01:08:37;;;;;;;9.93;4.18;;;;;;;8.16;100.00;97954.72;5010459;28;20551;-74
2021/05/20 01:11:04;;;;;;;6.20;4.45;;;;;;;8.13;100.00;97949.91;4992612;28;20401;-75
2021/05/20 01:13:30;;;;;;;10.60;4.50;;;;;;;8.11;100.00;97962.09;5007958;28;20100;-75
2021/05/20 01:15:59;;;;;;;11.07;4.55;;;;;;;8.10;100.00;97949.72;4992503;28;20045;-76
2021/05/20 01:18:26;;;;;;;6.78;4.18;;;;;;;8.06;100.00;97944.09;4994006;28;20123;-76
2021/05/20 01:20:52;;;;;;;5.03;3.60;;;;;;;8.03;100.00;97943.84;5016993;28;20111;-76
2021/05/20 01:23:20;;;;;;;6.70;3.95;;;;;;;8.04;100.00;97934.69;5016456;28;20049;-77
2021/05/20 01:25:49;;;;;;;8.27;4.03;;;;;;;8.05;100.00;97934.38;5016827;28;20065;-76
2021/05/20 01:28:18;;;;;;;8.68;3.92;;;;;;;8.08;100.00;97933.81;4998620;28;20042;-76
2021/05/20 01:30:47;;;;;;;11.23;4.25;;;;;;;8.10;100.00;97920.06;5016709;28;20050;-77
2021/05/20 01:33:14;;;;;;;5.63;3.83;;;;;;;8.13;100.00;97925.63;5016619;28;20050;-76
2021/05/20 01:35:44;;;;;;;5.30;4.05;;;;;;;8.23;100.00;97932.81;5016520;28;20068;-76
2021/05/20 01:40:53;;;;;;;6.18;4.00;;;;;;;8.26;100.00;97932.19;5016795;28;20060;-75
2021/05/20 01:43:20;;;;;;;7.03;4.88;;;;;;;8.32;100.00;97922.97;5016013;28;20052;-77
2021/05/20 01:45:50;;;;;;;5.60;4.30;;;;;;;8.33;100.00;97927.28;4999276;28;20065;-73
2021/05/20 01:48:17;;;;;;;9.07;4.78;;;;;;;8.37;100.00;97920.19;5016488;28;20100;-75
2021/05/20 01:50:43;;;;;;;9.70;4.75;;;;;;;8.36;100.00;97912.41;5015087;23;20051;-79
2021/05/20 01:53:10;;;;;;;5.40;4.30;;;;;;;8.30;100.00;97914.38;4985288;28;20058;-79
2021/05/20 01:55:40;;;;;;;6.65;4.07;;;;;;;8.30;100.00;97910.88;5006359;28;20051;-79
2021/05/20 01:58:07;;;;;;;9.02;3.95;;;;;;;8.26;100.00;97916.00;5006149;28;20085;-80
2021/05/20 02:00:34;;;;;;;5.57;3.83;;;;;;;8.21;100.00;97921.47;5021420;28;20046;-79
2021/05/20 02:03:00;;;;;;;7.05;3.95;;;;;;;8.19;100.00;97912.88;5026446;28;20037;-79
2021/05/20 02:05:27;;;;;;;5.57;3.65;;;;;;;8.08;100.00;97911.44;5010717;28;20026;-78
2021/05/20 02:07:56;;;;;;;5.57;3.97;;;;;;;8.11;100.00;97916.25;5024850;28;20046;-79
2021/05/20 02:10:24;;;;;;;6.18;4.28;;;;;;;8.04;100.00;97915.81;5020241;28;20119;-79
2021/05/20 02:12:54;;;;;;;7.13;4.63;;;;;;;7.99;100.00;97921.28;5003085;28;20053;-79
2021/05/20 02:15:21;;;;;;;8.70;4.78;;;;;;;7.99;100.00;97910.50;5002238;28;20046;-79
2021/05/20 02:17:48;;;;;;;8.23;5.22;;;;;;;7.91;100.00;97916.53;5002517;28;20116;-78
2021/05/20 02:20:16;;;;;;;9.95;5.10;;;;;;;7.91;100.00;97928.13;5020552;28;20160;-78
2021/05/20 02:22:44;;;;;;;11.52;5.10;;;;;;;7.79;100.00;97930.44;5021902;28;20108;-79
2021/05/20 02:25:11;;;;;;;11.23;5.03;;;;;;;7.74;100.00;97932.41;5022482;28;20046;-77
2021/05/20 02:27:38;;;;;;;9.88;5.63;;;;;;;7.67;100.00;97929.25;5029048;28;20136;-78
2021/05/20 02:30:12;;;;;;;7.88;5.68;;;;;;;7.53;100.00;97934.53;5007155;28;20060;-79
2021/05/20 02:32:39;;;;;;;8.35;5.40;;;;;;;7.54;100.00;97933.44;5009784;28;20034;-79
2021/05/20 02:35:07;;;;;;;8.60;5.68;;;;;;;7.46;100.00;97926.78;5024856;28;20045;-79
2021/05/20 02:37:37;;;;;;;12.00;6.20;;;;;;;7.33;100.00;97927.47;5011938;28;20052;-80
2021/05/20 02:40:05;;;;;;;8.85;5.93;;;;;;;7.33;100.00;97922.09;5011590;28;20284;-79
2021/05/20 02:42:33;;;;;;;7.15;5.18;;;;;;;7.24;100.00;97937.28;5030803;28;20111;-79
2021/05/20 02:45:00;;;;;;;10.55;6.07;;;;;;;7.27;100.00;97936.72;5023972;28;20056;-78
2021/05/20 02:47:27;;;;;;;13.55;6.75;;;;;;;7.22;100.00;97939.47;5015039;28;20049;-78
2021/05/20 02:49:59;;;;;;;11.25;6.25;;;;;;;7.13;100.00;97930.41;5013800;28;20105;-79
2021/05/20 02:52:26;;;;;;;9.77;5.90;;;;;;;7.10;100.00;97935.56;5019266;28;20057;-79
2021/05/20 02:54:53;;;;;;;10.70;6.30;;;;;;;7.07;100.00;97949.59;5031994;28;20046;-78
2021/05/20 02:57:20;;;;;;;10.65;5.72;;;;;;;7.08;100.00;97940.41;5012011;28;20149;-79
2021/05/20 02:59:47;;;;;;;10.43;4.93;;;;;;;6.98;100.00;97944.00;5027579;28;20053;-78
2021/05/20 03:02:16;;;;;;;15.00;5.22;;;;;;;6.82;100.00;97942.53;4996018;28;20046;-78
2021/05/20 03:04:43;;;;;;;11.18;5.82;;;;;;;6.91;100.00;97951.63;5012414;28;20042;-78
2021/05/20 03:07:10;;;;;;;8.63;5.53;;;;;;;6.98;100.00;97943.19;5029071;28;20048;-78
2021/05/20 03:09:41;;;;;;;12.55;5.85;;;;;;;7.13;100.00;97948.44;5023766;28;20058;-79
2021/05/20 03:12:08;;;;;;;9.90;6.03;;;;;;;7.21;100.00;97953.19;5012681;28;20076;-78
2021/05/20 03:14:37;;;;;;;12.20;6.50;;;;;;;7.22;100.00;97950.25;5013751;28;20547;-78
2021/05/20 03:17:10;;;;;;;16.00;6.53;;;;;;;7.34;100.00;97955.22;5029027;28;20080;-79
2021/05/20 03:19:39;;;;;;;11.48;6.88;;;;;;;7.43;100.00;97953.53;5022478;28;20096;-79
2021/05/20 03:22:07;;;;;;;12.63;6.45;;;;;;;7.42;100.00;97957.28;5007712;28;20117;-79
2021/05/20 03:24:35;;;;;;;13.23;6.80;;;;;;;7.48;100.00;97956.16;5031217;28;20046;-78
2021/05/20 03:27:02;;;;;;;13.98;7.20;;;;;;;7.49;100.00;97961.25;5031810;28;20110;-78
2021/05/20 03:29:31;;;;;;;10.15;6.72;;;;;;;7.53;100.00;97962.28;5014767;28;20132;-79
2021/05/20 03:31:57;;;;;;;11.63;6.43;;;;;;;7.59;100.00;97954.16;5014361;28;20057;-78
2021/05/20 03:34:24;;;;;;;18.05;7.20;;;;;;;7.67;100.00;97967.78;5005231;28;20054;-78
2021/05/20 03:36:51;;;;;;;18.35;8.73;;;;;;;7.78;100.00;97969.25;5030745;28;20045;-79
2021/05/20 03:39:18;;;;;;;13.23;7.78;;;;;;;7.77;100.00;97959.56;5025754;28;20042;-79
2021/05/20 03:41:45;;;;;;;10.65;6.45;;;;;;;7.85;100.00;97966.19;5027742;28;20046;-78
2021/05/20 03:44:12;;;;;;;11.43;6.60;;;;;;;7.83;100.00;97963.81;4990242;28;20081;-78
2021/05/20 03:46:39;;;;;;;10.20;6.38;;;;;;;7.88;100.00;97952.97;5011514;28;20065;-79
2021/05/20 03:49:06;;;;;;;11.30;5.85;;;;;;;8.00;100.00;97960.63;4996149;28;20049;-78
2021/05/20 03:51:35;;;;;;;10.10;6.35;;;;;;;8.00;100.00;97974.13;5031284;28;20050;-78
2021/05/20 03:54:05;;;;;;;9.07;6.57;;;;;;;8.05;100.00;97971.34;5008222;28;20077;-79
2021/05/20 03:56:32;;;;;;;10.30;6.13;;;;;;;7.96;100.00;97967.69;5008653;28;20050;-79
2021/05/20 03:58:59;;;;;;;11.38;6.68;;;;;;;8.05;100.00;97974.06;4992676;28;20053;-79
2021/05/20 04:01:31;;;;;;;10.25;6.93;;;;;;;8.07;100.00;97982.63;5011940;28;20053;-79
2021/05/20 04:03:58;;;;;;;11.05;7.15;;;;;;;8.09;100.00;97981.25;5008758;28;20068;-79
2021/05/20 04:06:25;;;;;;;14.13;7.72;;;;;;;7.95;100.00;97976.84;5011684;28;20057;-79
2021/05/20 04:08:52;;;;;;;11.70;7.38;;;;;;;8.01;100.00;97987.28;5009217;28;20054;-78
2021/05/20 04:11:19;;;;;;;8.27;4.60;;;;;;;7.96;100.00;97983.84;4995439;28;20042;-78
2021/05/20 04:13:48;;;;;;;8.98;4.50;;;;;;;8.09;100.00;97985.84;5006922;28;20046;-79
2021/05/20 04:16:15;;;;;;;7.50;5.05;;;;;;;8.26;100.00;97988.84;5007543;28;20052;-78
2021/05/20 04:18:44;;;;;;;5.05;3.70;;;;;;;8.34;100.00;97972.03;5002541;28;20061;-78
2021/05/20 04:21:12;;;;;;;7.35;3.90;;;;;;;8.56;100.00;97988.44;5020426;28;20042;-80
2021/05/20 04:23:43;;;;;;;6.43;2.97;;;;;;;8.64;100.00;97986.97;5020097;28;20073;-80
2021/05/20 04:26:11;;;;;;;5.15;3.40;;;;;;;8.68;100.00;97996.88;5022587;28;20121;-78
2021/05/20 04:28:40;;;;;;;4.18;2.53;;;;;;;8.68;100.00;97988.78;5006818;28;20095;-79
2021/05/20 04:31:12;;;;;;;3.97;3.10;;;;;;;8.86;100.00;97994.44;5027138;28;20149;-78
2021/05/20 04:33:41;;;;;;;5.72;2.88;;;;;;;8.94;100.00;97999.19;4993456;28;20049;-78
2021/05/20 04:36:11;;;;;;;3.97;2.45;;;;;;;8.97;100.00;97994.00;4991779;28;20089;-79
2021/05/20 04:38:38;;;;;;;3.35;2.38;;;;;;;8.99;100.00;98004.50;5027357;28;20045;-79
2021/05/20 04:41:10;;;;;;;5.63;2.42;;;;;;;8.93;100.00;97998.38;5027085;28;20045;-79
2021/05/20 04:43:37;;;;;;;4.13;2.30;;;;;;;8.99;100.00;97983.69;5009505;28;20041;-78
2021/05/20 04:46:22;;;;;;;3.75;2.40;;;;;;;9.06;100.00;97989.50;5147683;27;20358;-78
2021/05/20 04:48:50;;;;;;;3.63;2.20;;;;;;;9.05;100.00;97979.81;5131966;27;20069;-79
2021/05/20 04:51:18;;;;;;;3.03;2.15;;;;;;;9.09;100.00;97985.41;5143039;27;20387;-74
2021/05/20 04:53:49;;;;;;;4.97;2.15;;;;;;;9.20;100.00;97990.34;5121749;27;20047;-78
2021/05/20 04:56:23;;;;;;;3.72;2.33;;;;;;;9.19;100.00;97980.63;5147140;28;20043;-78
2021/05/20 04:58:52;;;;;;;3.95;2.38;;;;;;;9.25;100.00;97987.56;5117130;22;20036;-76
2021/05/20 05:01:19;;;;;;;3.42;2.20;;;;;;;9.22;100.00;98003.56;5105879;28;20048;-77
2021/05/20 05:03:45;;;;;;;2.75;2.00;;;;;;;9.15;100.00;97995.03;5088422;28;20044;-76
2021/05/20 05:06:12;;;;;;;4.50;2.30;;;;;;;9.08;100.00;98000.84;5106309;28;20040;-74
2021/05/20 05:08:38;;;;;;;3.95;2.38;;;;;;;9.02;100.00;97987.72;5107195;28;20051;-75
2021/05/20 05:11:05;;;;;;;3.75;2.42;;;;;;;8.97;100.00;97990.50;5106714;28;20039;-75
2021/05/20 05:13:31;;;;;;;5.13;2.53;;;;;;;8.87;100.00;97996.06;5105964;28;20092;-76
2021/05/20 05:15:59;;;;;;;5.80;3.33;;;;;;;8.91;100.00;97997.88;5106493;28;20040;-74
2021/05/20 05:18:26;;;;;;;4.38;2.70;;;;;;;8.81;100.00;98000.72;5098846;28;20097;-75
2021/05/20 05:20:52;;;;;;;4.90;2.63;;;;;;;8.79;100.00;98011.03;5103707;28;20434;-74
2021/05/20 05:23:20;;;;;;;4.70;3.10;;;;;;;8.76;100.00;98020.53;5102551;28;20533;-75
2021/05/20 05:25:50;;;;;;;4.65;3.17;;;;;;;8.73;100.00;98018.41;5103973;28;20040;-76
2021/05/20 05:28:17;;;;;;;4.30;2.95;;;;;;;8.70;100.00;98013.59;5104471;28;20085;-74
2021/05/20 05:30:45;;;;;;;5.13;2.80;;;;;;;8.71;100.00;98028.69;5085153;28;20623;-77
2021/05/20 05:33:12;;;;;;;4.95;3.38;;;;;;;8.72;100.00;98022.19;5104526;28;20051;-74
2021/05/20 05:35:39;;;;;;;4.20;3.05;;;;;;;8.70;100.00;98023.56;5103539;28;20044;-77
2021/05/20 05:38:06;;;;;;;5.55;3.58;;;;;;;8.69;100.00;98039.00;5085314;28;20048;-74
2021/05/20 05:40:32;;;;;;;6.90;3.10;;;;;;;8.69;100.00;98032.78;5102999;28;20048;-74
2021/05/20 05:42:59;;;;;;;6.93;3.78;;;;;;;8.81;100.00;98032.31;5102429;28;20455;-75
2021/05/20 05:45:25;;;;;;;6.35;3.72;;;;;;;8.87;100.00;98031.16;5102947;28;20046;-75
2021/05/20 05:47:52;;;;;;;6.20;4.30;;;;;;;8.92;100.00;98039.97;5102370;28;20096;-76
2021/05/20 05:50:18;;;;;;;5.63;3.90;;;;;;;8.92;100.00;98037.28;5102313;28;20043;-74
2021/05/20 05:52:45;;;;;;;7.72;3.92;;;;;;;9.03;100.00;98032.53;5103438;28;20051;-74
2021/05/20 05:55:12;;;;;;;5.60;4.05;;;;;;;9.07;100.00;98039.75;5084152;28;20114;-75
2021/05/20 05:57:38;;;;;;;6.35;3.67;;;;;;;9.11;100.00;98039.97;5070650;28;20048;-74
2021/05/20 06:00:06;;;;;;;7.25;4.07;;;;;;;9.16;100.00;98040.66;5089219;28;20052;-74
2021/05/20 06:02:34;;;;;;;7.70;4.43;;;;;;;9.23;100.00;98048.41;5089186;28;20065;-74
2021/05/20 06:05:02;;;;;;;7.45;3.95;;;;;;;9.39;100.00;98034.31;5089774;28;20051;-76
2021/05/20 06:07:34;;;;;;;8.50;4.55;;;;;;;9.66;100.00;98041.66;5084577;28;20563;-76
2021/05/20 06:10:03;;;;;;;8.98;4.72;;;;;;;9.88;100.00;98035.59;5085586;28;20062;-75
2021/05/20 06:12:30;;;;;;;8.38;4.53;;;;;;;10.14;100.00;98042.13;5086757;28;20211;-77
2021/05/20 06:14:56;;;;;;;5.43;4.05;;;;;;;10.24;100.00;98028.41;5067132;28;20058;-77
2021/05/20 06:17:23;;;;;;;4.85;3.95;;;;;;;10.31;100.00;98034.19;5094344;28;20070;-76
2021/05/20 06:19:52;;;;;;;6.95;3.78;;;;;;;10.25;100.00;98042.69;5092717;28;20066;-76
2021/05/20 06:22:18;;;;;;;6.25;3.97;;;;;;;10.21;100.00;98041.72;5092045;28;20058;-77
2021/05/20 06:24:45;;;;;;;8.05;4.00;;;;;;;10.39;100.00;98044.31;5092841;28;20044;-79
2021/05/20 06:27:12;;;;;;;6.50;3.95;;;;;;;10.54;100.00;98046.69;5096743;28;20036;-76
2021/05/20 06:29:39;;;;;;;6.00;4.32;;;;;;;10.53;100.00;98053.19;5091496;28;20051;-74
2021/05/20 06:32:06;;;;;;;9.75;4.47;;;;;;;10.50;100.00;98050.31;5092378;28;20048;-74
2021/05/20 06:34:32;;;;;;;6.78;4.50;;;;;;;10.48;100.00;98053.28;5091185;28;20058;-77
2021/05/20 06:37:02;;;;;;;6.70;4.57;;;;;;;10.55;100.00;98045.59;5091942;28;20105;-75
2021/05/20 06:39:29;;;;;;;9.52;4.43;;;;;;;10.54;100.00;98046.69;5055186;28;20554;-75
2021/05/20 06:41:56;;;;;;;7.30;4.28;;;;;;;10.70;100.00;98046.34;5090448;28;20127;-77
2021/05/20 06:44:23;;;;;;;5.50;3.67;;;;;;;10.93;100.00;98046.06;5089956;28;20668;-76
2021/05/20 06:46:52;;;;;;;8.32;5.07;;;;;;;11.26;100.00;98049.31;5090761;28;20475;-74
2021/05/20 06:49:19;;;;;;;7.10;4.65;;;;;;;11.56;100.00;98058.59;5090995;28;20059;-75
2021/05/20 06:51:45;;;;;;;5.30;4.03;;;;;;;11.53;100.00;98051.09;5090993;28;20044;-77
2021/05/20 06:54:12;;;;;;;5.22;3.55;;;;;;;11.36;100.00;98042.84;5089938;28;20554;-76
2021/05/20 06:56:41;;;;;;;6.80;4.50;;;;;;;11.55;100.00;98048.88;5072167;28;20048;-76
2021/05/20 07:01:53;;;;;;;6.93;4.30;;;;;;;11.85;100.00;98057.03;5091041;28;20036;-77
2021/05/20 07:04:20;;;;;;;5.35;4.30;;;;;;;11.92;100.00;98047.66;5072216;28;20066;-76
2021/05/20 07:06:49;;;;;;;7.68;5.03;;;;;;;11.55;100.00;98057.81;5073467;28;20044;-76
2021/05/20 07:09:24;;;;;;;6.97;4.80;;;;;;;11.94;100.00;98053.56;5088927;28;20054;-75
2021/05/20 07:11:51;;;;;;;6.70;4.30;;;;;;;11.93;100.00;98052.75;5090365;28;20036;-78
2021/05/20 07:14:18;;;;;;;5.72;4.20;;;;;;;12.01;100.00;98051.97;5053568;28;20173;-78
2021/05/20 07:16:45;;;;;;;7.18;4.65;;;;;;;11.96;100.00;98054.03;5087681;28;20047;-76
2021/05/20 07:19:18;;;;;;;5.90;5.10;;;;;;;12.08;100.00;98062.41;5090052;28;20071;-76
2021/05/20 07:21:45;;;;;;;10.73;5.53;;;;;;;12.09;100.00;98064.78;5069559;28;20043;-74
2021/05/20 07:24:11;;;;;;;6.30;5.22;;;;;;;12.30;100.00;98068.53;5089447;28;20101;-75
2021/05/20 07:26:38;;;;;;;8.65;3.80;;;;;;;12.27;100.00;98057.50;5052197;28;20510;-77
2021/05/20 07:29:05;;;;;;;8.82;4.38;;;;;;;11.94;100.00;98059.78;5089066;28;20093;-75
2021/05/20 07:31:32;;;;;;;6.22;4.20;;;;;;;12.13;100.00;98065.75;5088461;28;20047;-78
2021/05/20 07:33:59;;;;;;;6.05;4.40;;;;;;;11.86;100.00;98064.06;5088901;28;20242;-75
2021/05/20 07:36:26;;;;;;;6.30;4.50;;;;;;;11.92;100.00;98066.63;5089591;28;20047;-76
2021/05/20 07:38:53;;;;;;;11.30;5.18;;;;;;;11.66;100.00;98061.06;5070849;28;20048;-76
2021/05/20 07:41:20;;;;;;;7.85;5.15;;;;;;;11.72;100.00;98073.38;5090519;28;20067;-76
2021/05/20 07:43:47;;;;;;;7.63;5.00;;;;;;;11.85;100.00;98069.78;5089116;28;20036;-76
2021/05/20 07:46:13;;;;;;;8.95;5.05;;;;;;;11.96;100.00;98070.31;5072214;28;20048;-76
2021/05/20 07:48:40;;;;;;;7.07;5.03;;;;;;;12.22;100.00;98076.66;5071575;28;20040;-75
2021/05/20 07:51:08;;;;;;;7.80;4.97;;;;;;;12.24;100.00;98074.41;5090504;28;20040;-75
2021/05/20 07:53:35;;;;;;;6.55;3.75;;;;;;;12.40;100.00;98067.44;5072200;28;20055;-77
2021/05/20 07:56:03;;;;;;;7.20;4.20;;;;;;;12.51;100.00;98068.75;5091605;28;20063;-78
2021/05/20 07:58:31;;;;;;;7.25;4.70;;;;;;;12.32;100.00;98055.44;5089271;28;20525;-75
2021/05/20 08:01:01;;;;;;;11.30;5.00;;;;;;;12.42;100.00;98060.56;5089388;28;20048;-76
2021/05/20 08:03:32;;;;;;;7.45;4.90;;;;;;;12.47;100.00;98071.28;5070456;28;20044;-75
2021/05/20 08:08:34;;;;;;;6.97;4.75;;;;;;;13.21;100.00;98081.31;5095269;28;20053;-76
2021/05/20 08:11:05;;;;;;;5.72;4.00;;;;;;;13.35;100.00;98079.19;5090902;28;20052;-76
2021/05/20 08:13:31;;;;;;;5.15;3.85;;;;;;;12.69;100.00;98070.38;5096561;28;20050;-74
2021/05/20 08:15:59;;;;;;;6.65;3.78;;;;;;;13.01;100.00;98067.19;5075278;28;20051;-73
2021/05/20 08:18:27;;;;;;;5.28;3.60;;;;;;;12.74;100.00;98080.28;5095811;28;20040;-77
2021/05/20 08:20:54;;;;;;;6.95;4.10;;;;;;;12.71;100.00;98070.03;5092576;28;20122;-76
2021/05/20 08:23:21;;;;;;;4.72;3.83;;;;;;;12.95;100.00;98079.34;5083115;28;20098;-77
2021/05/20 08:25:47;;;;;;;5.75;3.58;;;;;;;12.91;100.00;98080.28;5089007;28;20052;-76
2021/05/20 08:28:14;;;;;;;5.30;3.60;;;;;;;13.00;100.00;98078.41;5104927;28;20043;-77
2021/05/20 08:30:41;;;;;;;6.30;3.45;;;;;;;12.92;100.00;98073.75;5080193;28;20048;-76
2021/05/20 08:33:07;;;;;;;4.97;3.33;;;;;;;13.05;100.00;98078.22;5074175;28;20067;-77
2021/05/20 08:35:34;;;;;;;5.15;3.60;;;;;;;12.98;100.00;98075.19;5093471;28;20051;-76
2021/05/20 08:38:01;;;;;;;5.47;3.80;;;;;;;13.18;100.00;98074.59;5106814;28;20108;-80
2021/05/20 08:40:30;;;;;;;6.72;4.40;;;;;;;12.84;100.00;98071.81;5082420;28;20393;-76
2021/05/20 08:42:57;;;;;;;6.07;4.25;;;;;;;12.44;100.00;98074.63;5098728;28;20052;-77
2021/05/20 08:45:27;;;;;;;6.47;4.30;;;;;;;12.40;100.00;98079.09;5078754;28;20040;-76
2021/05/20 08:47:55;;;;;;;5.65;3.70;;;;;;;12.74;100.00;98072.94;5097303;28;20047;-77
2021/05/20 08:50:25;;;;;;;4.20;3.00;;;;;;;13.21;100.00;98070.44;5088236;28;20044;-76
2021/05/20 08:52:52;;;;;;;4.88;3.60;;;;;;;13.47;100.00;98077.41;5071830;28;20044;-76
2021/05/20 08:55:25;;;;;;;6.38;3.25;;;;;;;14.63;100.00;98064.34;5089461;28;20097;-79
2021/05/20 08:57:55;;;;;;;4.75;3.22;;;;;;;14.68;100.00;98073.13;5090903;28;20131;-75
2021/05/20 09:00:23;;;;;;;6.07;3.60;;;;;;;14.34;100.00;98060.50;5090259;28;20048;-77
2021/05/20 09:02:51;;;;;;;8.05;3.60;;;;;;;14.04;100.00;98056.13;5090575;28;20040;-80
2021/05/20 09:05:20;;;;;;;9.15;3.40;;;;;;;13.61;100.00;98064.44;5074449;28;20079;-78
2021/05/20 09:07:51;;;;;;;5.28;2.88;;;;;;;13.72;100.00;98064.91;5091910;28;20087;-80
2021/05/20 09:10:21;;;;;;;5.70;2.83;;;;;;;13.92;100.00;98072.34;5088768;28;20040;-77
2021/05/20 09:13:12;;;;;;;4.53;3.17;;;;;;;13.94;100.00;98069.28;5071233;28;20411;-77
2021/05/20 09:15:41;;;;;;;4.55;3.00;;;;;;;14.15;100.00;98068.25;5037558;28;20116;-76
2021/05/20 09:18:17;;;;;;;7.43;3.03;;;;;;;14.53;100.00;98067.47;5052505;28;20121;-76
2021/05/20 09:20:50;;;;;;;3.67;2.45;;;;;;;15.24;100.00;98069.00;5071315;28;20045;-76
2021/05/20 09:23:29;;;;;;;9.40;2.70;;;;;;;15.93;100.00;98074.59;5069031;28;20181;-77
2021/05/20 09:26:05;;;;;;;5.25;2.90;;;;;;;15.20;100.00;98073.53;5066191;28;20147;-77
2021/05/20 09:28:42;;;;;;;4.55;2.97;;;;;;;14.43;100.00;98068.63;5090294;28;20098;-78
2021/05/20 09:31:14;;;;;;;5.75;2.67;;;;;;;13.70;100.00;98073.38;5072882;28;20089;-76
2021/05/20 09:33:54;;;;;;;6.35;3.20;;;;;;;13.31;100.00;98083.69;5095670;28;20040;-80
2021/05/20 09:36:22;;;;;;;5.10;3.10;;;;;;;12.90;100.00;98074.06;5094803;28;20062;-78
2021/05/20 09:38:49;;;;;;;4.90;2.88;;;;;;;13.39;100.00;98080.16;5094409;28;20047;-76
2021/05/20 09:41:19;;;;;;;4.80;2.95;;;;;;;14.84;100.00;98078.81;5093386;28;20044;-77
2021/05/20 09:43:46;;;;;;;5.18;2.88;;;;;;;15.04;100.00;98069.03;5093702;28;20256;-77
2021/05/20 09:46:15;;;;;;;5.05;2.60;;;;;;;15.22;100.00;98078.66;5093625;28;20040;-77
2021/05/20 09:48:47;;;;;;;4.57;3.15;;;;;;;15.05;100.00;98085.03;5091617;28;20040;-78
2021/05/20 09:51:22;;;;;;;3.22;2.25;;;;;;;15.25;100.00;98076.03;5075049;28;20059;-77
2021/05/20 09:53:53;;;;;;;3.58;1.90;;;;;;;16.20;100.00;98079.44;5094410;28;20055;-76
2021/05/20 09:56:31;;;;;;;2.33;1.73;;;;;;;15.81;100.00;98074.59;5078549;28;20584;-79
2021/05/20 09:58:57;;;;;;;5.03;2.70;;;;;;;15.34;100.00;98073.25;5093922;28;20521;-77
2021/05/20 10:01:24;;;;;;;3.38;2.40;;;;;;;15.34;100.00;98074.06;5092221;28;20684;-75
2021/05/20 10:03:55;;;;;;;7.35;2.65;;;;;;;15.32;100.00;98075.53;5083387;28;20040;-78
2021/05/20 10:06:35;;;;;;;4.35;1.88;;;;;;;14.76;100.00;98074.22;5073430;28;20450;-78
2021/05/20 10:09:04;;;;;;;4.85;2.60;;;;;;;13.80;100.00;98063.28;5092608;28;20043;-78
2021/05/20 10:11:33;;;;;;;3.42;2.42;;;;;;;13.67;100.00;98076.75;5074487;28;20166;-78
2021/05/20 10:14:00;;;;;;;5.15;3.30;;;;;;;13.72;100.00;98073.88;5091261;28;20128;-76
2021/05/20 10:16:27;;;;;;;5.80;4.15;;;;;;;14.22;100.00;98065.81;5091875;28;20051;-76
2021/05/20 10:18:57;;;;;;;4.60;3.30;;;;;;;15.92;100.00;98072.22;5092414;28;20122;-76
2021/05/20 10:21:25;;;;;;;5.45;3.58;;;;;;;16.03;100.00;98071.44;5093405;28;20047;-78
2021/05/20 10:23:53;;;;;;;6.47;4.47;;;;;;;15.83;100.00;98057.84;5076046;28;20073;-76
2021/05/20 10:26:20;;;;;;;6.53;3.63;;;;;;;15.43;100.00;98063.84;5094510;28;20259;-77
2021/05/20 10:28:46;;;;;;;9.07;3.60;;;;;;;15.51;100.00;98073.91;5073292;28;20105;-75
2021/05/20 10:31:15;;;;;;;5.10;4.00;;;;;;;15.33;100.00;98077.91;5093591;28;20048;-77
2021/05/20 10:33:43;;;;;;;9.25;4.57;;;;;;;15.29;100.00;98070.72;5092720;28;20048;-76
2021/05/20 10:36:26;;;;;;;7.68;4.43;;;;;;;15.45;100.00;98067.09;5076561;28;20040;-75
2021/05/20 10:38:55;;;;;;;9.57;4.95;;;;;;;15.28;100.00;98061.75;5076703;28;20051;-78
2021/05/20 10:41:26;;;;;;;7.32;4.43;;;;;;;15.44;100.00;98059.19;5076160;28;20040;-74
2021/05/20 10:44:08;;;;;;;7.43;4.65;;;;;;;16.81;100.00;98057.53;5078392;28;20044;-76
2021/05/20 10:46:56;;;;;;;6.03;4.20;;;;;;;18.41;100.00;98044.28;5077870;28;20040;-76
2021/05/20 10:49:45;;;;;;;5.75;3.90;;;;;;;17.97;100.00;98047.16;5078834;28;20052;-79
2021/05/20 10:52:40;;;;;;;3.47;2.60;;;;;;;17.71;100.00;98057.00;5076640;28;20129;-80
2021/05/20 10:55:12;;;;;;;4.13;2.58;;;;;;;17.35;100.00;98053.28;5075919;28;20059;-79
2021/05/20 10:57:45;;;;;;;3.70;3.30;;;;;;;17.36;100.00;98046.66;5094223;28;20044;-77
2021/05/20 11:00:42;;;;;;;4.97;3.70;;;;;;;18.01;100.00;98053.50;5041579;28;20426;-80
2021/05/20 11:03:09;;;;;;;5.03;3.50;;;;;;;17.68;100.00;98052.25;5034091;28;20046;-79
2021/05/20 11:05:42;;;;;;;6.22;3.97;;;;;;;17.38;100.00;98051.78;5032880;28;20253;-80
2021/05/20 11:08:09;;;;;;;9.48;4.75;;;;;;;17.54;100.00;98046.38;5016445;28;20144;-79
2021/05/20 11:10:39;;;;;;;6.93;4.65;;;;;;;16.96;100.00;98047.81;5037768;28;20050;-80
2021/05/20 11:13:06;;;;;;;7.03;4.68;;;;;;;16.92;100.00;98046.94;5052251;28;20056;-81
2021/05/20 11:15:32;;;;;;;6.53;4.35;;;;;;;16.42;100.00;98042.63;5053856;28;20059;-80
2021/05/20 11:18:31;;;;;;;6.30;4.40;;;;;;;16.61;100.00;98044.81;5040597;28;20041;-79
2021/05/20 11:20:58;;;;;;;8.15;4.38;;;;;;;16.48;100.00;98040.47;5038511;28;20279;-81
2021/05/20 11:23:26;;;;;;;6.65;3.72;;;;;;;16.99;100.00;98038.94;5021293;28;20131;-81
2021/05/20 11:26:00;;;;;;;4.78;2.95;;;;;;;17.43;99.14;98041.38;5028416;28;20056;-79
2021/05/20 11:28:27;;;;;;;9.05;3.75;;;;;;;17.35;100.00;98034.13;5022955;28;20211;-82
2021/05/20 11:30:59;;;;;;;5.00;3.45;;;;;;;18.88;76.94;98031.31;5024949;28;20116;-80
2021/05/20 11:33:29;;;;;;;5.68;3.30;;;;;;;19.14;81.92;98028.75;5053784;28;20041;-82
2021/05/20 11:38:30;;;;;;;7.45;3.08;;;;;;;20.65;64.90;98021.63;5046936;28;20045;-81
2021/05/20 11:41:11;;;;;;;4.88;3.47;;;;;;;20.59;57.58;98012.13;5033494;28;20041;-82
2021/05/20 11:43:38;;;;;;;8.52;3.70;;;;;;;19.55;63.87;98012.69;5014316;28;20139;-81
2021/05/20 11:46:17;;;;;;;6.00;3.83;;;;;;;18.90;61.42;98015.28;5012827;28;20512;-79
2021/05/20 11:49:23;;;;;;;5.38;3.45;;;;;;;18.08;79.29;98019.22;5031352;28;20045;-81